Terminal Aerodrome Forecast
Issued by NWS Charleston, WV

Home | Current Version | Previous Version | Text Only | Print | Product List | Glossary On
Versions: 1 2 3 4 5 6 7 8 9 10 11 12 13 14 15 16 17 18 19 20 21 22
000
FTUS41 KRLX 041100
TAFHTS
TAF
KHTS 041129Z 0412/0512 00000KT 2SM -RA SCT005 OVC015
      TEMPO 0412/0414 3SM -RA BKN005 OVC015
     FM041500 00000KT 3SM -RA BR OVC010
     FM041700 00000KT 2SM +RA BR OVC008
     FM050200 01007KT 3SM -PL BR OVC010
     FM050600 36009G15KT 1SM -SN BR SCT001 OVC008=

USA.gov is the U.S. government's official web portal to all federal, state and local government web resources and services.